Time;durP1;ratioP1;P1;durP2;ratioP2;P2;SDS_P1;SDS_P2;PMS_P1;PMS_P2;Temp;Humidity;BMP_temperature;BMP_pressure;BME280_temperature;BME280_humidity;BME280_pressure;Samples;Min_cycle;Max_cycle;Signal;HPM_P1;HPM_P2
2022/06/23 00:01:50;;;;;;;;;27.75;27.75;;;;;20.58;100.00;100685.63;6285124;22;44750;-86
2022/06/23 00:04:39;;;;;;;;;29.50;28.25;;;;;20.29;100.00;100662.66;6291009;22;45375;-86
2022/06/23 00:07:24;;;;;;;;;25.25;25.25;;;;;20.30;100.00;100687.75;6292027;22;44748;-85
2022/06/23 00:10:09;;;;;;;;;24.75;24.75;;;;;20.15;100.00;100673.25;6285587;22;44988;-84
2022/06/23 00:12:41;;;;;;;;;29.25;26.50;;;;;20.08;100.00;100661.44;6278516;22;44810;-86
2022/06/23 00:15:41;;;;;;;;;32.50;30.00;;;;;20.19;100.00;100680.00;6275812;22;45350;-86
2022/06/23 00:18:35;;;;;;;;;26.50;26.50;;;;;20.09;100.00;100673.94;6245233;22;45211;-86
2022/06/23 00:21:35;;;;;;;;;30.75;30.25;;;;;20.04;100.00;100674.41;6241730;22;45510;-84
2022/06/23 00:24:26;;;;;;;;;;;;;;;;;;;;;
2022/06/23 00:26:53;;;;;;;;;28.00;26.00;;;;;20.06;100.00;100677.78;6280012;22;74525;-86
2022/06/23 00:29:49;;;;;;;;;29.00;28.25;;;;;20.14;100.00;100694.00;6281714;22;45368;-85
2022/06/23 00:32:18;;;;;;;;;30.25;30.25;;;;;20.09;100.00;100676.63;6284029;22;44758;-85
2022/06/23 00:35:17;;;;;;;;;31.50;27.25;;;;;20.08;100.00;100685.72;6284490;22;44850;-85
2022/06/23 00:38:00;;;;;;;;;30.50;28.75;;;;;20.15;100.00;100684.88;6281506;22;45479;-86
2022/06/23 00:40:50;;;;;;;;;33.00;30.25;;;;;20.13;100.00;100694.16;6251634;22;44776;-85
2022/06/23 00:43:31;;;;;;;;;33.25;29.25;;;;;19.94;100.00;100668.34;6281762;22;45193;-84
2022/06/23 00:46:19;;;;;;;;;24.25;23.50;;;;;20.01;100.00;100678.28;6278196;22;44818;-86
2022/06/23 00:49:11;;;;;;;;;28.75;27.00;;;;;19.96;100.00;100669.00;6250989;22;45991;-85
2022/06/23 00:51:59;;;;;;;;;34.25;31.25;;;;;19.98;100.00;100669.69;6277236;22;44974;-84
2022/06/23 00:55:29;;;;;;;;;36.50;27.75;;;;;20.12;100.00;100682.53;6274901;22;45214;-85
2022/06/23 00:58:29;;;;;;;;;31.75;28.50;;;;;20.09;100.00;100676.63;6155590;23;44827;-85
2022/06/23 01:01:19;;;;;;;;;28.50;27.00;;;;;20.15;100.00;100681.34;6156443;23;46516;-85
2022/06/23 01:04:10;;;;;;;;;30.50;27.00;;;;;20.13;100.00;100670.72;6179507;23;45493;-84
2022/06/23 01:10:10;;;;;;;;;29.50;29.00;;;;;20.03;100.00;100659.25;6094308;23;44903;-85
2022/06/23 01:19:40;;;;;;;;;30.25;30.25;;;;;20.10;100.00;100671.06;6090048;23;45564;-84
2022/06/23 01:24:04;;;;;;;;;;;;;;;;;;;;;
2022/06/23 01:26:29;;;;;;;;;35.25;30.75;;;;;20.16;100.00;100656.91;6048425;23;45496;-85
2022/06/23 01:29:30;;;;;;;;;30.25;29.50;;;;;20.16;100.00;100661.44;6098770;23;44768;-85
2022/06/23 01:32:31;;;;;;;;;31.75;28.00;;;;;20.17;100.00;100665.84;6075954;23;44984;-85
2022/06/23 01:35:33;;;;;;;;;;;;;;;;;;;;;
2022/06/23 01:38:26;;;;;;;;;35.75;30.00;;;;;20.23;100.00;100665.19;6104850;23;74575;-86
2022/06/23 01:41:58;;;;;;;;;31.00;30.25;;;;;20.24;100.00;100665.00;6062244;23;44836;-88
2022/06/23 01:47:55;;;;;;;;;37.25;32.50;;;;;20.11;100.00;100643.06;6071049;23;45548;-86
2022/06/23 01:51:04;;;;;;;;;34.50;28.75;;;;;20.24;100.00;100656.91;6179465;23;45359;-88
2022/06/23 01:53:34;;;;;;;;;35.50;32.50;;;;;20.29;100.00;100665.34;6184963;23;45280;-86
2022/06/23 01:57:00;;;;;;;;;31.50;26.00;;;;;20.22;100.00;100639.22;6180618;23;44753;-86
2022/06/23 01:59:47;;;;;;;;;28.50;28.50;;;;;20.33;100.00;100655.06;6157884;23;44921;-87
2022/06/23 02:06:33;;;;;;;;;27.75;27.25;;;;;20.42;100.00;100662.16;6162946;23;45153;-87
2022/06/23 02:09:33;;;;;;;;;23.50;22.00;;;;;20.35;100.00;100650.34;6175929;23;44800;-85
2022/06/23 02:12:52;;;;;;;;;33.00;30.75;;;;;20.49;100.00;100651.56;6204783;22;44806;-85
2022/06/23 02:16:01;;;;;;;;;33.00;31.50;;;;;20.44;100.00;100643.94;6236887;22;45368;-85
2022/06/23 02:19:08;;;;;;;;;36.50;32.50;;;;;20.51;100.00;100650.38;6237462;22;44939;-88
2022/06/23 02:26:10;;;;;;;;;38.50;33.00;;;;;20.50;100.00;100656.78;6213117;22;44727;-88
2022/06/23 02:28:55;;;;;;;;;33.75;33.25;;;;;20.46;100.00;100654.56;6151406;23;45389;-88
2022/06/23 02:32:17;;;;;;;;;34.75;32.25;;;;;20.46;100.00;100651.88;6150686;23;44819;-88
2022/06/23 02:35:22;;;;;;;;;36.75;31.00;;;;;20.48;100.00;100648.00;6091376;23;44938;-86
2022/06/23 02:38:16;;;;;;;;;30.50;29.25;;;;;20.41;100.00;100635.34;6093493;23;44796;-87
2022/06/23 02:41:15;;;;;;;;;31.25;28.75;;;;;20.52;100.00;100657.47;6005968;23;45119;-87
2022/06/23 02:44:15;;;;;;;;;15.40;13.20;;;;;20.51;100.00;100652.25;6017443;23;45178;-87
2022/06/23 02:47:20;;;;;;;;;17.40;13.00;;;;;20.47;100.00;100650.88;6030870;23;44801;-87
2022/06/23 02:50:11;;;;;;;;;7.80;7.80;;;;;20.41;100.00;100657.78;6029905;23;44874;-87
2022/06/23 02:53:14;;;;;;;;;6.40;6.40;;;;;20.33;100.00;100652.38;6026376;23;45998;-87
2022/06/23 02:56:20;;;;;;;;;4.80;4.80;;;;;20.24;100.00;100651.50;6043649;23;45513;-86
2022/06/23 03:03:13;;;;;;;;;5.40;4.00;;;;;19.93;100.00;100645.09;6014190;23;44915;-88
2022/06/23 03:06:16;;;;;;;;;5.60;4.20;;;;;20.02;100.00;100662.97;5925886;24;47229;-89
2022/06/23 03:09:18;;;;;;;;;7.00;5.00;;;;;19.97;100.00;100668.03;5948231;23;45294;-89
2022/06/23 03:15:34;;;;;;;;;3.20;3.20;;;;;19.81;100.00;100663.41;5926007;24;45000;-87
2022/06/23 03:18:48;;;;;;;;;5.00;3.80;;;;;19.75;100.00;100664.06;5956853;23;45538;-92
2022/06/23 03:22:04;;;;;;;;;4.00;4.00;;;;;19.78;100.00;100669.16;5980835;23;44946;-90
2022/06/23 03:24:38;;;;;;;;;5.00;5.00;;;;;19.62;100.00;100652.91;5980808;23;45483;-90
2022/06/23 03:27:35;;;;;;;;;4.60;4.60;;;;;19.71;100.00;100677.03;5955747;23;44910;-90
2022/06/23 03:30:25;;;;;;;;;5.00;4.00;;;;;19.61;100.00;100679.00;5989663;23;45245;-90
2022/06/23 03:33:39;;;;;;;;;3.60;3.60;;;;;19.54;100.00;100672.56;5963197;23;44769;-90
2022/06/23 03:36:18;;;;;;;;;4.00;4.00;;;;;19.47;100.00;100682.28;5975591;23;45825;-90
2022/06/23 03:42:15;;;;;;;;;4.60;3.00;;;;;19.39;100.00;100693.00;6069465;23;44921;-90
2022/06/23 03:45:29;;;;;;;;;6.40;3.80;;;;;19.34;100.00;100703.44;6104989;23;45218;-91
2022/06/23 03:52:00;;;;;;;;;4.80;3.80;;;;;19.22;100.00;100692.09;6093122;23;45203;-85
2022/06/23 03:54:56;;;;;;;;;5.80;4.20;;;;;19.33;100.00;100718.75;6091018;23;45446;-89
2022/06/23 03:58:19;;;;;;;;;3.80;3.00;;;;;19.34;100.00;100714.22;6072714;23;44857;-87
2022/06/23 04:01:15;;;;;;;;;8.00;5.40;;;;;19.35;100.00;100719.47;6113804;22;44801;-87
2022/06/23 04:04:04;;;;;;;;;5.00;5.00;;;;;19.37;100.00;100719.28;6256792;22;45499;-88
2022/06/23 04:06:36;;;;;;;;;8.00;7.20;;;;;19.39;100.00;100723.53;6257732;22;46508;-88
2022/06/23 04:09:35;;;;;;;;;8.00;5.60;;;;;19.40;100.00;100727.06;6249291;22;45443;-88
2022/06/23 04:12:17;;;;;;;;;5.00;5.00;;;;;19.36;100.00;100717.59;6248899;22;45424;-87
2022/06/23 04:15:20;;;;;;;;;5.00;3.80;;;;;19.44;100.00;100729.28;6261072;22;44785;-86
2022/06/23 04:18:19;;;;;;;;;7.60;5.40;;;;;19.41;100.00;100724.19;6171023;23;46858;-85
2022/06/23 04:21:17;;;;;;;;;6.40;6.40;;;;;19.43;100.00;100735.66;6067578;23;44663;-90
2022/06/23 04:24:11;;;;;;;;;7.20;5.00;;;;;19.34;100.00;100720.47;6042134;23;45336;-88
2022/06/23 04:29:43;;;;;;;;;6.00;6.00;;;;;19.30;100.00;100731.72;5954825;23;45450;-89
2022/06/23 04:32:41;;;;;;;;;4.40;3.80;;;;;19.36;100.00;100741.84;5955960;23;44835;-89
2022/06/23 04:35:58;;;;;;;;;5.00;5.00;;;;;19.42;100.00;100755.53;5912676;23;44782;-87
2022/06/23 04:39:11;;;;;;;;;4.00;4.00;;;;;19.41;100.00;100744.91;5877469;24;45280;-89
2022/06/23 04:42:58;;;;;;;;;;;;;;;;;;;;;
2022/06/23 04:45:51;;;;;;;;;;;;;;;;;;;;;
2022/06/23 04:48:59;;;;;;;;;2.40;2.40;;;;;19.45;100.00;100765.16;5683176;25;68862;-89
2022/06/23 04:52:00;;;;;;;;;5.20;3.80;;;;;19.43;100.00;100754.50;5633711;25;44963;-89
2022/06/23 04:58:22;;;;;;;;;3.40;3.40;;;;;19.52;100.00;100739.22;5654685;25;44878;-90
2022/06/23 05:04:31;;;;;;;;;4.40;4.40;;;;;19.65;100.00;100734.28;5660895;25;44907;-89
2022/06/23 05:07:24;;;;;;;;;12.20;11.80;;;;;19.66;100.00;100735.97;5711568;24;45432;-88
2022/06/23 05:09:56;;;;;;;;;8.40;4.20;;;;;19.76;100.00;100747.47;5763262;24;45344;-89
2022/06/23 05:12:39;;;;;;;;;9.00;6.80;;;;;19.73;100.00;100744.28;5821296;24;45316;-88
2022/06/23 05:15:19;;;;;;;;;6.40;4.40;;;;;19.75;100.00;100750.34;5937734;23;44852;-88
2022/06/23 05:17:57;;;;;;;;;4.40;1.60;;;;;19.80;100.00;100744.47;5971948;23;47114;-87
2022/06/23 05:20:48;;;;;;;;;6.60;5.00;;;;;19.79;100.00;100740.91;5994666;23;44797;-87
2022/06/23 05:23:19;;;;;;;;;4.60;4.40;;;;;19.86;100.00;100743.78;5982995;23;44726;-89
2022/06/23 05:25:50;;;;;;;;;4.00;3.40;;;;;19.88;100.00;100739.94;6013496;23;45175;-88
2022/06/23 05:28:24;;;;;;;;;5.40;5.20;;;;;20.01;100.00;100753.78;6044271;23;45051;-89
2022/06/23 05:30:57;;;;;;;;;5.00;4.80;;;;;19.96;100.00;100731.88;6073361;23;44702;-89
2022/06/23 05:33:28;;;;;;;;;5.40;4.40;;;;;20.18;100.00;100752.00;6075253;23;44774;-87
2022/06/23 05:36:03;;;;;;;;;7.20;5.00;;;;;20.20;100.00;100754.53;6134541;23;44610;-88
2022/06/23 05:38:40;;;;;;;;;6.00;5.20;;;;;20.05;100.00;100715.72;6131593;23;45200;-87
2022/06/23 05:41:30;;;;;;;;;7.20;7.20;;;;;20.14;100.00;100742.53;6105465;23;44819;-87
2022/06/23 05:43:58;;;;;;;;;5.80;5.80;;;;;20.22;100.00;100739.03;6180207;22;44902;-89
2022/06/23 05:49:40;;;;;;;;;7.40;6.80;;;;;19.99;100.00;100704.56;6295976;22;44823;-89
2022/06/23 05:55:13;;;;;;;;;8.20;7.80;;;;;20.02;100.00;100725.84;6284332;22;44928;-91
2022/06/23 05:58:13;;;;;;;;;5.80;4.80;;;;;19.99;100.00;100707.28;6290344;22;44897;-92
2022/06/23 06:04:46;;;;;;;;;12.00;6.00;;;;;20.75;100.00;100694.56;6297832;22;44563;-87
2022/06/23 06:07:18;;;;;;;;;9.60;8.00;;;;;21.30;100.00;100693.78;6212391;22;44581;-89
2022/06/23 06:09:45;;;;;;;;;8.60;7.40;;;;;21.78;100.00;100703.59;6161262;22;44787;-88
2022/06/23 06:12:14;;;;;;;;;8.80;7.00;;;;;22.05;100.00;100699.56;6204934;22;45502;-89
2022/06/23 06:14:46;;;;;;;;;10.00;9.00;;;;;22.38;100.00;100706.66;6195819;22;44825;-88
2022/06/23 06:17:25;;;;;;;;;7.00;7.00;;;;;22.68;100.00;100707.63;6225383;22;44589;-89
2022/06/23 06:19:54;;;;;;;;;8.00;6.80;;;;;22.78;100.00;100697.38;6224339;22;44839;-88
2022/06/23 06:22:45;;;;;;;;;9.40;6.20;;;;;22.94;100.00;100693.69;6196173;22;45501;-88
2022/06/23 06:25:22;;;;;;;;;6.00;5.00;;;;;22.83;100.00;100694.94;6227733;22;45217;-88
2022/06/23 06:27:48;;;;;;;;;8.20;8.20;;;;;22.79;100.00;100678.22;6223261;22;44679;-91
2022/06/23 06:30:17;;;;;;;;;9.50;8.50;;;;;22.34;100.00;100668.28;6226044;22;44882;-90
2022/06/23 06:32:45;;;;;;;;;10.00;7.40;;;;;21.61;100.00;100676.81;6198291;22;46628;-89
2022/06/23 06:35:19;;;;;;;;;8.80;8.80;;;;;21.68;100.00;100694.03;6219149;22;44834;-88
2022/06/23 06:37:53;;;;;;;;;8.80;7.40;;;;;22.10;100.00;100690.94;6195568;22;44669;-89
2022/06/23 06:40:19;;;;;;;;;11.40;9.20;;;;;22.29;100.00;100687.78;6232838;22;44794;-91
2022/06/23 06:42:50;;;;;;;;;6.40;6.40;;;;;22.39;100.00;100681.28;6259170;22;45128;-88
2022/06/23 06:45:20;;;;;;;;;6.20;6.20;;;;;22.45;100.00;100678.69;6292673;22;44743;-89
2022/06/23 06:50:36;;;;;;;;;5.00;5.00;;;;;23.12;100.00;100685.22;6286595;22;44985;-88
2022/06/23 06:53:15;;;;;;;;;6.80;6.80;;;;;23.31;100.00;100681.94;6279512;22;45092;-87
2022/06/23 06:55:46;;;;;;;;;5.60;5.60;;;;;23.49;100.00;100682.38;6280255;22;44680;-87
2022/06/23 06:58:43;;;;;;;;;6.00;6.00;;;;;23.66;100.00;100680.34;6257424;22;44733;-89
2022/06/23 07:01:19;;;;;;;;;8.00;5.60;;;;;23.91;100.00;100696.31;6248854;22;44906;-90
2022/06/23 07:03:47;;;;;;;;;6.40;5.00;;;;;23.82;100.00;100676.56;6257238;22;45098;-89
2022/06/23 07:06:31;;;;;;;;;7.20;5.80;;;;;23.80;100.00;100686.78;6289527;22;44744;-89
2022/06/23 07:09:29;;;;;;;;;8.60;7.00;;;;;23.46;100.00;100685.50;6281229;22;44648;-89
2022/06/23 07:12:21;;;;;;;;;5.80;3.80;;;;;23.16;100.00;100689.22;6281218;22;44821;-87
2022/06/23 07:15:08;;;;;;;;;8.80;7.60;;;;;23.11;100.00;100711.44;6283484;22;45079;-86
2022/06/23 07:18:13;;;;;;;;;4.60;4.60;;;;;23.24;100.00;100698.09;6276672;22;44750;-89
2022/06/23 07:21:05;;;;;;;;;8.40;5.60;;;;;23.14;100.00;100688.56;6253940;22;44681;-88
2022/06/23 07:23:48;;;;;;;;;5.80;4.40;;;;;22.91;100.00;100703.00;6227336;22;44774;-89
2022/06/23 07:26:19;;;;;;;;;6.40;5.60;;;;;22.67;100.00;100695.91;6247527;22;45200;-85
2022/06/23 07:28:52;;;;;;;;;7.40;7.40;;;;;22.71;100.00;100696.41;6249808;22;44727;-87
2022/06/23 07:31:24;;;;;;;;;10.40;8.60;;;;;22.52;100.00;100695.88;6253945;22;44764;-88
2022/06/23 07:34:10;;;;;;;;;11.00;9.80;;;;;22.55;100.00;100702.81;6246557;22;44771;-87
2022/06/23 07:36:46;;;;;;;;;7.20;6.00;;;;;22.36;100.00;100692.47;6247074;22;45039;-88
2022/06/23 07:39:19;;;;;;;;;9.80;7.80;;;;;22.80;100.00;100704.28;6250156;22;44640;-86
2022/06/23 07:42:04;;;;;;;;;6.00;6.00;;;;;23.26;100.00;100706.91;6254158;22;44634;-88
2022/06/23 07:44:42;;;;;;;;;6.20;6.20;;;;;23.66;100.00;100710.19;6253395;22;44691;-88
2022/06/23 07:47:08;;;;;;;;;7.00;7.00;;;;;24.09;100.00;100716.56;6248512;22;45020;-87
2022/06/23 07:49:34;;;;;;;;;7.40;5.80;;;;;24.19;100.00;100691.00;6248022;22;44912;-88
2022/06/23 07:52:01;;;;;;;;;7.00;4.50;;;;;24.43;100.00;100704.22;6253401;22;45437;-88
2022/06/23 07:54:30;;;;;;;;;8.80;7.40;;;;;24.44;100.00;100697.75;6228136;22;44845;-88
2022/06/23 07:56:56;;;;;;;;;4.80;4.00;;;;;24.43;100.00;100696.06;6252535;22;45187;-87
2022/06/23 07:59:30;;;;;;;;;8.50;6.25;;;;;24.47;100.00;100691.09;6249746;22;44651;-89
2022/06/23 08:02:08;;;;;;;;;7.60;6.20;;;;;24.54;100.00;100698.25;6298507;22;44567;-89
2022/06/23 08:04:57;;;;;;;;;4.40;4.40;;;;;24.60;100.00;100697.47;6301072;22;44701;-88
2022/06/23 08:07:23;;;;;;;;;4.40;4.40;;;;;24.61;100.00;100701.00;6290262;22;45047;-87
2022/06/23 08:09:55;;;;;;;;;6.00;6.00;;;;;24.36;100.00;100695.97;6259027;22;44695;-88
2022/06/23 08:18:34;;;;;;;;;5.80;5.00;;;;;23.94;100.00;100704.06;6285582;22;44934;-87
2022/06/23 08:21:22;;;;;;;;;8.00;7.00;;;;;23.97;100.00;100692.81;6261018;22;44755;-87
2022/06/23 08:24:08;;;;;;;;;9.00;7.40;;;;;24.24;100.00;100705.66;6265785;22;44718;-87
2022/06/23 08:26:38;;;;;;;;;6.60;6.00;;;;;24.43;100.00;100697.94;6290332;22;44820;-86
2022/06/23 08:29:09;;;;;;;;;7.40;4.60;;;;;24.70;100.00;100696.28;6283167;22;45112;-87
2022/06/23 08:31:34;;;;;;;;;7.20;7.00;;;;;24.75;100.00;100678.34;6279688;22;44832;-88
2022/06/23 08:34:01;;;;;;;;;8.50;7.00;;;;;24.96;100.00;100687.53;6262215;22;44705;-92
2022/06/23 08:36:42;;;;;;;;;11.60;7.00;;;;;25.21;100.00;100696.09;6265993;22;44796;-91
2022/06/23 08:39:16;;;;;;;;;5.60;5.60;;;;;25.23;100.00;100683.13;6289144;22;45478;-90
2022/06/23 08:42:18;;;;;;;;;6.80;5.40;;;;;25.28;100.00;100683.34;6263537;22;44688;-91
2022/06/23 08:45:14;;;;;;;;;7.00;7.00;;;;;25.43;100.00;100684.06;6292665;22;44757;-91
2022/06/23 08:47:50;;;;;;;;;7.60;7.60;;;;;25.24;100.00;100679.34;6292270;22;44838;-91
2022/06/23 08:50:49;;;;;;;;;9.40;7.40;;;;;25.23;100.00;100674.97;6297490;22;45193;-89
2022/06/23 08:53:53;;;;;;;;;7.00;7.00;;;;;25.30;100.00;100692.19;6278458;22;44797;-90
2022/06/23 08:56:47;;;;;;;;;8.60;6.60;;;;;25.06;100.00;100699.72;6208414;22;44683;-90
2022/06/23 08:59:29;;;;;;;;;6.40;6.00;;;;;24.95;100.00;100697.56;6209949;22;44868;-91
2022/06/23 09:02:21;;;;;;;;;9.20;8.20;;;;;24.86;100.00;100698.75;6207991;22;45389;-91
2022/06/23 09:04:49;;;;;;;;;7.00;7.00;;;;;24.66;100.00;100692.28;6190902;23;44774;-86
2022/06/23 09:07:14;;;;;;;;;7.00;5.60;;;;;24.12;100.00;100693.59;6162359;23;44680;-87
2022/06/23 09:10:13;;;;;;;;;8.25;8.25;;;;;24.34;100.00;100695.31;6161687;23;45078;-87
2022/06/23 09:13:06;;;;;;;;;4.40;4.40;;;;;24.79;100.00;100687.81;6161577;23;46634;-85
2022/06/23 09:15:53;;;;;;;;;6.40;5.00;;;;;25.06;100.00;100693.44;6187232;23;44746;-87
2022/06/23 09:18:30;;;;;;;;;10.00;8.80;;;;;24.95;100.00;100696.69;6188089;23;44742;-89
2022/06/23 09:21:24;;;;;;;;;7.00;7.00;;;;;25.11;100.00;100691.00;6164059;23;44857;-87
2022/06/23 09:24:14;;;;;;;;;10.80;8.00;;;;;24.90;100.00;100689.16;6188900;23;45086;-87
2022/06/23 09:26:58;;;;;;;;;8.00;8.00;;;;;24.73;100.00;100687.75;6188372;23;44754;-87
2022/06/23 09:29:56;;;;;;;;;6.60;5.80;;;;;25.01;100.00;100690.50;6193378;22;44615;-87
2022/06/23 09:32:40;;;;;;;;;5.80;5.60;;;;;25.28;100.00;100683.34;6211400;22;44830;-87
2022/06/23 09:35:21;;;;;;;;;9.40;8.00;;;;;25.49;100.00;100679.72;6283581;22;44927;-87
2022/06/23 09:38:17;;;;;;;;;11.20;9.20;;;;;25.83;100.00;100678.84;6284453;22;44773;-86
2022/06/23 09:41:01;;;;;;;;;12.40;8.20;;;;;25.90;100.00;100666.09;6281072;22;44793;-87
2022/06/23 09:43:45;;;;;;;;;9.20;7.40;;;;;26.10;100.00;100679.75;6279393;22;44714;-88
2022/06/23 09:46:39;;;;;;;;;6.60;6.60;;;;;26.34;100.00;100681.06;6279991;22;45443;-85
2022/06/23 09:49:14;;;;;;;;;8.20;6.00;;;;;26.54;100.00;100683.84;6278874;22;44739;-86
2022/06/23 09:51:45;;;;;;;;;8.00;7.20;;;;;26.66;100.00;100676.72;6280346;22;44756;-88
2022/06/23 09:54:30;;;;;;;;;8.60;5.20;;;;;26.68;100.00;100687.41;6254832;22;44759;-87
2022/06/23 09:57:01;;;;;;;;;9.60;8.40;;;;;26.67;100.00;100675.66;6258026;22;45613;-88
2022/06/23 09:59:36;;;;;;;;;8.20;7.20;;;;;26.76;100.00;100674.41;6259087;22;44703;-86
2022/06/23 10:02:20;;;;;;;;;6.20;6.20;;;;;26.98;100.00;100682.34;6287344;22;44721;-88
2022/06/23 10:05:03;;;;;;;;;7.60;5.20;;;;;27.11;100.00;100679.66;6259894;22;44861;-87
2022/06/23 10:08:08;;;;;;;;;8.60;7.80;;;;;27.31;100.00;100685.06;6281732;22;45129;-87
2022/06/23 10:10:46;;;;;;;;;7.40;7.40;;;;;27.38;100.00;100684.00;6246481;22;44918;-87
2022/06/23 10:13:50;;;;;;;;;6.40;4.80;;;;;27.54;100.00;100684.56;6286538;22;44784;-86
2022/06/23 10:16:37;;;;;;;;;7.20;7.20;;;;;27.37;100.00;100676.88;6246593;22;44905;-87
2022/06/23 10:19:27;;;;;;;;;9.00;9.00;;;;;27.24;100.00;100676.91;6247815;22;45182;-87
2022/06/23 10:22:27;;;;;;;;;7.60;7.20;;;;;27.24;100.00;100676.06;6226051;22;44705;-86
2022/06/23 10:25:18;;;;;;;;;9.20;8.00;;;;;26.88;100.00;100674.59;6250372;22;45443;-87
2022/06/23 10:28:09;;;;;;;;;5.00;5.00;;;;;26.97;100.00;100670.59;6247820;22;44845;-88
2022/06/23 10:31:03;;;;;;;;;8.60;8.00;;;;;26.80;100.00;100677.56;6233039;22;46728;-87
2022/06/23 10:34:16;;;;;;;;;5.00;5.00;;;;;26.82;100.00;100673.56;6252138;22;44634;-88
2022/06/23 10:37:05;;;;;;;;;5.40;5.40;;;;;26.96;100.00;100668.94;6267320;22;44673;-85
2022/06/23 10:39:54;;;;;;;;;6.80;6.00;;;;;27.09;100.00;100668.97;6266636;22;44706;-85
2022/06/23 10:42:25;;;;;;;;;6.20;6.20;;;;;27.26;100.00;100671.22;6261935;22;45071;-86
2022/06/23 10:45:15;;;;;;;;;6.60;6.60;;;;;27.48;100.00;100671.78;6254621;22;44640;-87
2022/06/23 10:48:25;;;;;;;;;7.20;4.00;;;;;27.67;100.00;100657.22;6258263;22;45359;-87
2022/06/23 10:51:29;;;;;;;;;10.00;9.00;;;;;27.82;100.00;100666.00;6264577;22;44671;-86
2022/06/23 10:54:19;;;;;;;;;9.40;8.00;;;;;28.00;100.00;100667.19;6175482;23;45024;-86
2022/06/23 10:57:14;;;;;;;;;9.00;8.00;;;;;28.23;100.00;100667.44;6180092;23;44703;-86
2022/06/23 10:59:58;;;;;;;;;7.40;6.20;;;;;27.89;100.00;100658.59;6154670;23;44787;-88
2022/06/23 11:02:49;;;;;;;;;6.00;6.00;;;;;28.10;100.00;100659.34;6179718;23;44706;-86
2022/06/23 11:05:14;;;;;;;;;6.40;6.40;;;;;28.21;100.00;100658.63;6177782;23;45035;-86
2022/06/23 11:08:04;;;;;;;;;6.00;6.00;;;;;28.38;98.98;100651.63;6155997;23;44673;-87
2022/06/23 11:11:02;;;;;;;;;7.80;5.60;;;;;28.57;100.00;100654.38;6161229;23;44824;-87
2022/06/23 11:13:45;;;;;;;;;5.20;5.20;;;;;28.79;98.41;100654.84;6158695;23;44781;-87
2022/06/23 11:16:41;;;;;;;;;9.40;9.00;;;;;29.05;98.78;100645.56;6157581;23;44996;-87
2022/06/23 11:19:52;;;;;;;;;8.40;7.00;;;;;29.18;95.88;100645.41;6156779;23;44731;-86
2022/06/23 11:22:46;;;;;;;;;6.20;5.00;;;;;29.54;94.15;100636.38;6156445;23;44659;-86
2022/06/23 11:25:18;;;;;;;;;4.40;4.40;;;;;29.66;92.02;100636.44;6168819;23;44655;-91
2022/06/23 11:30:26;;;;;;;;;6.00;6.00;;;;;29.80;91.58;100631.63;6262479;22;44763;-89
2022/06/23 11:32:58;;;;;;;;;5.40;5.40;;;;;29.65;91.08;100632.03;6262262;22;44743;-92
2022/06/23 11:35:45;;;;;;;;;5.80;5.80;;;;;29.75;94.76;100642.44;6264135;22;45380;-91
2022/06/23 11:38:29;;;;;;;;;7.00;7.00;;;;;29.99;92.69;100625.03;6263581;22;45434;-90
2022/06/23 11:41:57;;;;;;;;;5.80;5.80;;;;;29.95;92.03;100634.78;6267244;22;44572;-90
2022/06/23 11:45:03;;;;;;;;;9.20;9.20;;;;;29.95;92.97;100630.13;6205456;23;44703;-90
2022/06/23 11:47:55;;;;;;;;;10.00;8.20;;;;;30.05;88.42;100609.56;6202954;23;44766;-89
2022/06/23 11:50:38;;;;;;;;;8.60;8.60;;;;;30.06;88.65;100606.56;6202354;23;45197;-88
2022/06/23 11:56:58;;;;;;;;;7.80;7.00;;;;;30.03;85.49;100615.28;6191860;23;44726;-89
2022/06/23 12:03:19;;;;;;;;;6.40;6.40;;;;;30.09;83.71;100608.84;6192842;23;44795;-89
2022/06/23 12:06:09;;;;;;;;;5.20;5.20;;;;;30.18;86.22;100595.69;6196245;23;44586;-88
2022/06/23 12:08:52;;;;;;;;;8.40;8.40;;;;;30.02;87.53;100604.53;6200433;23;44755;-89
2022/06/23 12:11:18;;;;;;;;;5.80;5.80;;;;;30.06;86.76;100594.78;6195926;22;44853;-87
2022/06/23 12:13:44;;;;;;;;;7.00;6.60;;;;;30.10;80.14;100593.25;6189561;23;45026;-88
2022/06/23 12:16:10;;;;;;;;;6.20;6.20;;;;;29.95;81.56;100589.03;6188139;23;44671;-87
2022/06/23 12:19:00;;;;;;;;;9.75;9.00;;;;;29.89;79.73;100581.75;6204996;22;44789;-85
2022/06/23 12:21:50;;;;;;;;;5.20;4.20;;;;;29.49;80.64;100577.88;6217085;22;44627;-85
2022/06/23 12:24:47;;;;;;;;;7.20;7.20;;;;;29.44;82.04;100584.88;6214222;22;45451;-85
2022/06/23 12:27:36;;;;;;;;;3.00;3.00;;;;;29.63;80.17;100576.66;6217311;22;44733;-86
2022/06/23 12:30:01;;;;;;;;;5.20;5.20;;;;;29.71;82.66;100576.34;6217386;22;44792;-86
2022/06/23 12:33:00;;;;;;;;;6.75;5.25;;;;;29.92;81.90;100566.75;6236030;22;44862;-84
2022/06/23 12:35:52;;;;;;;;;5.60;5.60;;;;;30.29;78.97;100570.19;6143572;23;45359;-86
2022/06/23 12:38:31;;;;;;;;;4.40;4.40;;;;;30.39;73.38;100580.56;6128912;23;44761;-84
2022/06/23 12:41:22;;;;;;;;;6.00;5.00;;;;;30.13;69.66;100576.38;6125064;23;44690;-85
2022/06/23 12:44:18;;;;;;;;;4.60;4.60;;;;;30.63;75.76;100560.31;6124116;23;44731;-85
2022/06/23 12:47:16;;;;;;;;;4.40;4.40;;;;;30.88;75.11;100567.47;6125787;23;45128;-84
2022/06/23 12:50:07;;;;;;;;;5.60;5.60;;;;;31.31;74.90;100560.72;6127235;23;44660;-84
2022/06/23 12:52:36;;;;;;;;;5.60;5.60;;;;;31.67;70.63;100567.72;6094188;23;44763;-87
2022/06/23 12:55:22;;;;;;;;;6.20;6.20;;;;;31.73;72.18;100558.50;6071710;23;44880;-86
2022/06/23 12:58:08;;;;;;;;;7.00;6.00;;;;;31.95;69.63;100550.41;6041276;23;45356;-86
2022/06/23 13:00:59;;;;;;;;;6.00;6.00;;;;;32.44;62.88;100570.75;6067358;23;44687;-87
2022/06/23 13:03:29;;;;;;;;;9.40;6.00;;;;;32.31;58.14;100562.84;6039403;23;44873;-87
2022/06/23 13:06:30;;;;;;;;;7.00;5.80;;;;;32.30;66.52;100552.94;6069943;23;44804;-88
2022/06/23 13:09:11;;;;;;;;;6.00;6.00;;;;;32.49;57.05;100551.59;6041420;23;45278;-90
2022/06/23 13:11:54;;;;;;;;;7.60;6.40;;;;;32.49;58.74;100554.34;6076779;23;44606;-88
2022/06/23 13:14:51;;;;;;;;;7.20;5.60;;;;;32.01;56.44;100559.56;6105454;23;44600;-90
2022/06/23 13:17:29;;;;;;;;;5.20;5.20;;;;;32.09;56.61;100554.50;6071327;23;44829;-89
2022/06/23 13:20:16;;;;;;;;;7.80;7.80;;;;;31.44;59.10;100547.53;6109399;23;44978;-89
2022/06/23 13:22:50;;;;;;;;;4.60;4.60;;;;;31.81;59.70;100541.59;6102590;23;44671;-88
2022/06/23 13:25:21;;;;;;;;;4.80;4.80;;;;;32.22;55.38;100547.84;6107916;23;44690;-89
2022/06/23 13:27:51;;;;;;;;;5.20;2.40;;;;;32.13;54.69;100544.66;6106389;23;44756;-88
2022/06/23 13:30:20;;;;;;;;;5.00;5.00;;;;;31.56;55.65;100549.41;6147996;23;45338;-89
2022/06/23 13:33:06;;;;;;;;;6.80;5.00;;;;;31.04;60.22;100535.69;6163515;23;44592;-91
2022/06/23 13:35:46;;;;;;;;;6.60;5.00;;;;;31.25;61.29;100535.06;6215049;22;44762;-90
2022/06/23 13:38:44;;;;;;;;;6.40;6.00;;;;;31.89;59.09;100544.00;6226094;22;44576;-89
2022/06/23 13:41:31;;;;;;;;;6.20;6.20;;;;;32.15;57.04;100538.91;6160790;23;44993;-90
2022/06/23 13:44:28;;;;;;;;;5.20;5.20;;;;;32.72;55.51;100534.03;6160372;23;44628;-90
2022/06/23 13:47:21;;;;;;;;;6.60;5.00;;;;;33.22;46.92;100538.56;6136195;23;44730;-89
2022/06/23 13:50:06;;;;;;;;;7.40;5.00;;;;;32.71;49.44;100537.88;6165013;23;44878;-87
2022/06/23 13:52:50;;;;;;;;;6.00;5.20;;;;;32.81;53.08;100523.41;6162182;23;46701;-89
2022/06/23 13:55:34;;;;;;;;;6.00;6.00;;;;;33.25;54.77;100521.50;6161771;23;44694;-89
2022/06/23 13:58:26;;;;;;;;;6.40;6.40;;;;;33.22;54.75;100523.97;6160524;23;44647;-89
2022/06/23 14:01:02;;;;;;;;;9.20;6.60;;;;;32.96;55.31;100518.13;6157457;23;44783;-86
2022/06/23 14:03:56;;;;;;;;;6.00;6.00;;;;;33.01;57.65;100506.38;6158942;23;44904;-86
2022/06/23 14:06:24;;;;;;;;;7.40;7.40;;;;;32.85;55.49;100502.56;6157399;23;44749;-86
2022/06/23 14:08:55;;;;;;;;;5.00;5.00;;;;;32.84;53.24;100511.91;6156506;23;44699;-86